createdAt,value
2023-10-22T00:00:23.371Z,98902.34
2023-10-22T00:02:50.338Z,98898.84
2023-10-22T00:05:17.212Z,98903.72
2023-10-22T00:07:44.127Z,98896.38
2023-10-22T00:10:10.888Z,98888.91
2023-10-22T00:12:37.720Z,98898.56
2023-10-22T00:15:04.969Z,98897.91
2023-10-22T00:17:34.373Z,98890.25
2023-10-22T00:20:01.146Z,98897.59
2023-10-22T00:22:27.944Z,98897.94
2023-10-22T00:24:54.736Z,98906.94
2023-10-22T00:27:21.494Z,98909.59
2023-10-22T00:29:48.377Z,98912.28
2023-10-22T00:32:15.204Z,98924.28
2023-10-22T00:34:42.275Z,98918.28
2023-10-22T00:37:09.481Z,98921.16
2023-10-22T00:39:36.260Z,98921.50
2023-10-22T00:42:03.500Z,98931.81
2023-10-22T00:44:30.512Z,98932.16
2023-10-22T00:46:57.709Z,98933.66
2023-10-22T00:49:24.849Z,98941.84
2023-10-22T00:51:51.690Z,98933.34
2023-10-22T00:54:20.631Z,98937.03
2023-10-22T00:56:49.443Z,98942.53
2023-10-22T00:59:16.270Z,98949.03
2023-10-22T01:01:45.881Z,98949.22
2023-10-22T01:04:13.811Z,98950.22
2023-10-22T01:06:40.885Z,98947.22
2023-10-22T01:09:11.234Z,98951.38
2023-10-22T01:11:39.370Z,98955.41
2023-10-22T01:14:06.954Z,98953.94
2023-10-22T01:16:34.009Z,98961.94
2023-10-22T01:19:00.759Z,98953.38
2023-10-22T01:21:30.523Z,98954.06
2023-10-22T01:23:57.979Z,98958.56
2023-10-22T01:26:25.173Z,98958.91
2023-10-22T01:28:52.301Z,98952.91
2023-10-22T01:31:19.315Z,98961.94
2023-10-22T01:33:46.197Z,98962.09
2023-10-22T01:36:13.359Z,98958.75
2023-10-22T01:38:40.821Z,98961.25
2023-10-22T01:41:08.153Z,98967.41
2023-10-22T01:43:35.069Z,98959.78
2023-10-22T01:46:01.903Z,98962.59
2023-10-22T01:48:28.884Z,98953.94
2023-10-22T01:50:55.741Z,98956.28
2023-10-22T01:53:23.617Z,98959.28
2023-10-22T01:55:50.498Z,98954.31
2023-10-22T01:58:17.375Z,98963.31
2023-10-22T02:00:44.343Z,98960.97
2023-10-22T02:03:12.084Z,98957.66
2023-10-22T02:05:39.005Z,98968.66
2023-10-22T02:08:07.230Z,98969.66
2023-10-22T02:10:34.887Z,98973.16
2023-10-22T02:13:01.719Z,98979.47
2023-10-22T02:15:28.589Z,98977.16
2023-10-22T02:17:55.624Z,98981.63
2023-10-22T02:20:22.853Z,98979.97
2023-10-22T02:22:49.760Z,98984.28
2023-10-22T02:25:16.560Z,98980.47
2023-10-22T02:27:43.396Z,98988.66
2023-10-22T02:30:10.774Z,98982.16
2023-10-22T02:32:37.962Z,98984.66
2023-10-22T02:35:05.303Z,98986.66
2023-10-22T02:37:32.150Z,98989.66
2023-10-22T02:39:58.902Z,98986.31
2023-10-22T02:42:27.315Z,98990.97
2023-10-22T02:44:54.123Z,98991.66
2023-10-22T02:47:21.898Z,98991.81
2023-10-22T02:49:49.093Z,98989.81
2023-10-22T02:52:15.923Z,98995.00
2023-10-22T02:54:43.241Z,98997.16
2023-10-22T02:57:11.131Z,99007.97
2023-10-22T02:59:38.058Z,99011.63
2023-10-22T03:02:04.968Z,99007.16
2023-10-22T03:04:31.864Z,99009.81
2023-10-22T03:06:58.801Z,99014.47
2023-10-22T03:09:25.761Z,99022.25
2023-10-22T03:11:52.630Z,99016.44
2023-10-22T03:14:21.527Z,99029.75
2023-10-22T03:16:48.973Z,99029.25
2023-10-22T03:19:15.998Z,99035.91
2023-10-22T03:21:42.880Z,99039.56
2023-10-22T03:24:13.073Z,99037.91
2023-10-22T03:26:40.002Z,99045.69
2023-10-22T03:29:07.989Z,99043.56
2023-10-22T03:31:34.944Z,99050.38
2023-10-22T03:34:01.695Z,99049.84
2023-10-22T03:36:29.305Z,99050.88
2023-10-22T03:38:56.147Z,99060.50
2023-10-22T03:41:22.907Z,99053.53
2023-10-22T03:43:50.384Z,99056.00
2023-10-22T03:46:17.425Z,99056.19
2023-10-22T03:48:44.506Z,99046.22
2023-10-22T03:51:13.766Z,99053.66
2023-10-22T03:53:41.259Z,99057.34
2023-10-22T03:56:08.627Z,99058.16
2023-10-22T03:58:35.575Z,99054.34
2023-10-22T04:01:02.712Z,99055.16
2023-10-22T04:03:29.542Z,99055.50
2023-10-22T04:05:59.791Z,99065.59
2023-10-22T04:08:27.210Z,99062.44
2023-10-22T04:10:54.128Z,99069.72
2023-10-22T04:13:21.024Z,99071.56
2023-10-22T04:15:49.653Z,99080.69
2023-10-22T04:18:18.162Z,99076.03
2023-10-22T04:20:45.137Z,99082.34
2023-10-22T04:23:12.097Z,99082.50
2023-10-22T04:25:41.312Z,99077.34
2023-10-22T04:28:08.601Z,99094.94
2023-10-22T04:30:42.302Z,99086.31
2023-10-22T04:33:09.606Z,99083.00
2023-10-22T04:35:36.972Z,99095.28
2023-10-22T04:38:04.466Z,99091.94
2023-10-22T04:40:36.018Z,99102.56
2023-10-22T04:43:03.296Z,99103.94
2023-10-22T04:45:30.120Z,99095.97
2023-10-22T04:47:57.118Z,99105.59
2023-10-22T04:50:25.649Z,99112.59
2023-10-22T04:52:53.234Z,99110.06
2023-10-22T04:55:20.074Z,99112.75
2023-10-22T04:57:46.913Z,99121.72
2023-10-22T05:00:14.462Z,99121.88
2023-10-22T05:02:41.439Z,99126.00
2023-10-22T05:05:08.416Z,99133.47
2023-10-22T05:07:35.172Z,99124.00
2023-10-22T05:10:02.089Z,99131.13
2023-10-22T05:12:28.985Z,99128.97
2023-10-22T05:14:55.845Z,99133.41
2023-10-22T05:17:25.658Z,99135.44
2023-10-22T05:19:52.610Z,99120.78
2023-10-22T05:22:19.570Z,99138.56
2023-10-22T05:24:49.862Z,99128.03
2023-10-22T05:27:18.505Z,99129.38
2023-10-22T05:29:47.456Z,99129.69
2023-10-22T05:32:17.639Z,99128.03
2023-10-22T05:34:45.001Z,99140.31
2023-10-22T05:37:12.063Z,99136.16
2023-10-22T05:39:38.948Z,99143.75
2023-10-22T05:42:06.490Z,99144.91
2023-10-22T05:44:36.725Z,99149.53
2023-10-22T05:47:04.971Z,99163.69
2023-10-22T05:49:31.756Z,99164.16
2023-10-22T05:51:58.653Z,99169.47
2023-10-22T05:54:25.490Z,99170.59
2023-10-22T05:56:52.791Z,99171.56
2023-10-22T05:59:19.692Z,99177.06
2023-10-22T06:01:46.566Z,99178.72
2023-10-22T06:04:13.467Z,99177.06
2023-10-22T06:06:40.392Z,99178.72
2023-10-22T06:09:07.374Z,99185.03
2023-10-22T06:11:35.195Z,99189.66
2023-10-22T06:14:03.795Z,99191.63
2023-10-22T06:16:32.269Z,99192.09
2023-10-22T06:18:59.235Z,99200.59
2023-10-22T06:21:25.981Z,99200.44
2023-10-22T06:23:52.834Z,99199.22
2023-10-22T06:26:19.666Z,99209.53
2023-10-22T06:28:46.680Z,99207.50
2023-10-22T06:31:14.469Z,99212.13
2023-10-22T06:33:42.385Z,99213.97
2023-10-22T06:36:24.265Z,99213.44
2023-10-22T06:38:51.189Z,99216.84
2023-10-22T06:41:20.875Z,99215.84
2023-10-22T06:43:48.437Z,99224.50
2023-10-22T06:46:18.444Z,99226.47
2023-10-22T06:48:45.674Z,99231.66
2023-10-22T06:51:13.773Z,99228.31
2023-10-22T06:53:41.268Z,99239.63
2023-10-22T06:56:08.175Z,99239.75
2023-10-22T06:58:37.008Z,99238.25
2023-10-22T07:01:08.338Z,99248.72
2023-10-22T07:03:45.377Z,99248.88
2023-10-22T07:06:12.598Z,99245.22
2023-10-22T07:08:39.912Z,99253.19
2023-10-22T07:11:06.698Z,99250.53
2023-10-22T07:13:33.614Z,99249.38
2023-10-22T07:16:00.567Z,99253.03
2023-10-22T07:18:27.506Z,99262.53
2023-10-22T07:20:54.389Z,99244.63
2023-10-22T07:23:21.284Z,99257.59
2023-10-22T07:25:48.506Z,99253.78
2023-10-22T07:28:17.506Z,99259.09
2023-10-22T07:30:48.833Z,99255.63
2023-10-22T07:33:19.888Z,99259.34
2023-10-22T07:35:54.442Z,99270.13
2023-10-22T07:38:21.335Z,99264.66
2023-10-22T07:40:48.712Z,99271.19
2023-10-22T07:43:15.847Z,99276.88
2023-10-22T07:45:42.838Z,99268.44
2023-10-22T07:48:09.895Z,99279.25
2023-10-22T07:50:36.753Z,99284.28
2023-10-22T07:53:03.477Z,99282.97
2023-10-22T07:55:30.395Z,99293.00
2023-10-22T07:57:57.463Z,99291.56
2023-10-22T08:00:24.286Z,99290.91
2023-10-22T08:02:51.361Z,99295.91
2023-10-22T08:05:18.304Z,99302.47
2023-10-22T08:07:45.377Z,99295.31
2023-10-22T08:10:12.146Z,99300.31
2023-10-22T08:12:38.989Z,99300.69
2023-10-22T08:15:06.682Z,99302.03
2023-10-22T08:17:33.492Z,99299.91
2023-10-22T08:20:01.042Z,99301.56
2023-10-22T08:22:27.798Z,99308.25
2023-10-22T08:24:54.542Z,99309.91
2023-10-22T08:27:21.523Z,99307.81
2023-10-22T08:29:48.426Z,99308.47
2023-10-22T08:32:15.242Z,99318.34
2023-10-22T08:34:42.002Z,99312.38
2023-10-22T08:37:08.908Z,99312.03
2023-10-22T08:39:35.859Z,99316.56
2023-10-22T08:42:08.299Z,99311.31
2023-10-22T08:44:40.069Z,99312.31
2023-10-22T08:47:08.840Z,99307.88
2023-10-22T08:49:36.411Z,99307.75
2023-10-22T08:52:03.722Z,99319.25
2023-10-22T08:54:30.476Z,99320.28
2023-10-22T08:56:57.410Z,99319.78
2023-10-22T08:59:24.562Z,99322.78
2023-10-22T09:01:52.011Z,99332.63
2023-10-22T09:04:19.066Z,99332.31
2023-10-22T09:06:48.278Z,99331.16
2023-10-22T09:09:35.519Z,99330.47
2023-10-22T09:12:02.941Z,99346.31
2023-10-22T09:14:30.013Z,99337.31
2023-10-22T09:16:57.328Z,99342.34
2023-10-22T09:19:41.935Z,99342.50
2023-10-22T09:22:21.795Z,99341.34
2023-10-22T09:24:50.733Z,99338.19
2023-10-22T09:27:28.076Z,99350.00
2023-10-22T09:29:55.710Z,99348.66
2023-10-22T09:32:22.577Z,99357.34
2023-10-22T09:34:49.340Z,99363.34
2023-10-22T09:37:16.218Z,99356.84
2023-10-22T09:39:44.294Z,99359.22
2023-10-22T09:42:17.976Z,99358.38
2023-10-22T09:44:45.976Z,99357.88
2023-10-22T09:47:25.496Z,99367.53
2023-10-22T09:49:54.706Z,99355.91
2023-10-22T09:52:22.950Z,99358.91
2023-10-22T09:54:51.443Z,99360.22
2023-10-22T09:57:21.043Z,99354.41
2023-10-22T09:59:48.521Z,99363.56
2023-10-22T10:02:23.376Z,99357.06
2023-10-22T10:04:50.985Z,99359.22
2023-10-22T10:07:18.683Z,99355.38
2023-10-22T10:09:46.404Z,99357.91
2023-10-22T10:12:14.383Z,99356.72
2023-10-22T10:14:44.730Z,99344.38
2023-10-22T10:17:12.608Z,99359.06
2023-10-22T10:19:39.348Z,99363.56
2023-10-22T10:22:06.433Z,99359.06
2023-10-22T10:24:33.989Z,99361.88
2023-10-22T10:27:00.855Z,99359.41
2023-10-22T10:29:29.306Z,99354.22
2023-10-22T10:32:13.840Z,99364.22
2023-10-22T10:34:44.198Z,99370.41
2023-10-22T10:37:16.945Z,99363.25
2023-10-22T10:39:44.177Z,99367.56
2023-10-22T10:42:12.386Z,99364.88
2023-10-22T10:44:57.850Z,99371.75
2023-10-22T10:47:30.537Z,99371.25
2023-10-22T10:50:05.115Z,99374.41
2023-10-22T10:52:36.234Z,99380.25
2023-10-22T10:55:33.508Z,99364.06
2023-10-22T10:58:01.126Z,99368.22
2023-10-22T11:00:31.757Z,99365.03
2023-10-22T11:03:04.595Z,99369.03
2023-10-22T11:05:40.950Z,99357.19
2023-10-22T11:08:19.725Z,99371.38
2023-10-22T11:10:47.142Z,99366.34
2023-10-22T11:13:15.107Z,99382.03
2023-10-22T11:15:42.338Z,99364.84
2023-10-22T11:18:11.242Z,99368.03
2023-10-22T11:20:43.132Z,99369.50
2023-10-22T11:23:19.223Z,99371.03
2023-10-22T11:25:46.673Z,99374.03
2023-10-22T11:28:13.761Z,99375.72
2023-10-22T11:30:42.750Z,99368.84
2023-10-22T11:33:12.938Z,99370.81
2023-10-22T11:35:39.917Z,99366.66
2023-10-22T11:38:07.557Z,99360.97
2023-10-22T11:40:38.001Z,99365.13
2023-10-22T11:43:15.135Z,99361.31
2023-10-22T11:45:52.607Z,99360.78
2023-10-22T11:48:28.023Z,99359.91
2023-10-22T11:51:00.765Z,99354.78
2023-10-22T11:53:48.975Z,99353.28
2023-10-22T11:56:15.898Z,99353.94
2023-10-22T11:58:44.354Z,99359.59
2023-10-22T12:01:11.356Z,99361.78
2023-10-22T12:03:38.232Z,99367.66
2023-10-22T12:06:05.279Z,99358.97
2023-10-22T12:08:32.152Z,99342.63
2023-10-22T12:10:59.013Z,99347.78
2023-10-22T12:13:26.025Z,99358.47
2023-10-22T12:15:53.157Z,99362.16
2023-10-22T12:18:20.054Z,99364.97
2023-10-22T12:20:47.024Z,99362.47
2023-10-22T12:23:13.909Z,99369.97
2023-10-22T12:25:40.824Z,99366.78
2023-10-22T12:28:07.788Z,99369.31
2023-10-22T12:30:35.887Z,99370.28
2023-10-22T12:33:03.253Z,99372.28
2023-10-22T12:35:30.126Z,99379.47
2023-10-22T12:37:56.939Z,99379.94
2023-10-22T12:40:23.803Z,99378.94
2023-10-22T12:42:50.937Z,99378.44
2023-10-22T12:45:18.316Z,99364.59
2023-10-22T12:47:47.431Z,99358.88
2023-10-22T12:50:14.511Z,99372.56
2023-10-22T12:52:41.684Z,99367.88
2023-10-22T12:55:08.850Z,99368.72
2023-10-22T12:57:35.941Z,99384.38
2023-10-22T13:00:13.509Z,99372.22
2023-10-22T13:02:41.761Z,99371.03
2023-10-22T13:05:09.220Z,99371.69
2023-10-22T13:07:37.371Z,99374.00
2023-10-22T13:10:05.653Z,99376.38
2023-10-22T13:12:32.988Z,99383.72
2023-10-22T13:14:59.967Z,99381.19
2023-10-22T13:17:26.866Z,99384.38
2023-10-22T13:19:53.947Z,99379.88
2023-10-22T13:22:20.690Z,99392.88
2023-10-22T13:24:47.462Z,99392.88
2023-10-22T13:27:14.276Z,99392.72
2023-10-22T13:29:40.995Z,99384.03
2023-10-22T13:32:07.918Z,99388.72
2023-10-22T13:34:38.774Z,99390.91
2023-10-22T13:37:10.252Z,99392.09
2023-10-22T13:39:37.169Z,99401.28
2023-10-22T13:42:04.325Z,99401.44
2023-10-22T13:44:31.181Z,99390.59
2023-10-22T13:46:58.074Z,99396.75
2023-10-22T13:49:25.015Z,99401.91
2023-10-22T13:51:51.836Z,99394.75
2023-10-22T13:54:18.734Z,99387.56
2023-10-22T13:56:45.490Z,99389.41
2023-10-22T13:59:14.394Z,99392.25
2023-10-22T14:01:41.894Z,99400.44
2023-10-22T14:04:08.831Z,99396.25
2023-10-22T14:06:35.851Z,99408.63
2023-10-22T14:09:02.683Z,99417.00
2023-10-22T14:11:29.615Z,99413.47
2023-10-22T14:13:59.189Z,99415.50
2023-10-22T14:16:26.044Z,99427.69
2023-10-22T14:18:53.063Z,99424.34
2023-10-22T14:21:21.610Z,99428.69
2023-10-22T14:23:48.551Z,99431.53
2023-10-22T14:26:15.385Z,99433.19
2023-10-22T14:28:42.180Z,99430.69
2023-10-22T14:31:09.230Z,99431.34
2023-10-22T14:33:36.231Z,99431.34
2023-10-22T14:36:04.311Z,99437.72
2023-10-22T14:38:31.241Z,99437.88
2023-10-22T14:40:58.247Z,99429.84
2023-10-22T14:43:25.080Z,99435.38
2023-10-22T14:45:52.027Z,99429.19
2023-10-22T14:48:18.890Z,99433.72
2023-10-22T14:50:59.699Z,99427.06
2023-10-22T14:53:26.598Z,99436.22
2023-10-22T14:56:04.417Z,99444.25
2023-10-22T14:58:31.599Z,99436.38
2023-10-22T15:01:05.555Z,99440.41
2023-10-22T15:03:32.795Z,99438.38
2023-10-22T15:06:00.261Z,99430.56
2023-10-22T15:08:27.275Z,99439.56
2023-10-22T15:10:54.807Z,99445.09
2023-10-22T15:13:22.600Z,99442.41
2023-10-22T15:15:49.606Z,99443.25
2023-10-22T15:18:16.747Z,99450.75
2023-10-22T15:20:51.585Z,99444.06
2023-10-22T15:23:19.148Z,99453.94
2023-10-22T15:25:47.632Z,99452.25
2023-10-22T15:28:14.750Z,99446.25
2023-10-22T15:30:42.180Z,99454.44
2023-10-22T15:33:09.470Z,99455.25
2023-10-22T15:35:36.458Z,99458.13
2023-10-22T15:38:05.249Z,99465.47
2023-10-22T15:40:32.533Z,99466.28
2023-10-22T15:42:59.736Z,99466.44
2023-10-22T15:45:26.966Z,99475.47
2023-10-22T15:47:54.441Z,99472.97
2023-10-22T15:50:22.496Z,99471.66
2023-10-22T15:52:49.939Z,99474.47
2023-10-22T15:55:17.137Z,99483.66
2023-10-22T15:57:43.912Z,99480.50
2023-10-22T16:00:12.129Z,99473.66
2023-10-22T16:02:39.019Z,99485.31
2023-10-22T16:05:09.540Z,99483.00
2023-10-22T16:14:27.759Z,99492.34
2023-10-22T16:15:16.671Z,99488.53
2023-10-22T16:16:54.716Z,99496.03
2023-10-22T16:19:21.457Z,99493.69
2023-10-22T16:21:48.161Z,99492.19
2023-10-22T16:24:14.903Z,99504.03
2023-10-22T16:26:41.769Z,99501.34
2023-10-22T16:29:08.544Z,99506.84
2023-10-22T16:31:35.414Z,99503.50
2023-10-22T16:34:02.304Z,99515.19
2023-10-22T16:36:29.148Z,99514.53
2023-10-22T16:38:55.955Z,99507.69
2023-10-22T16:41:22.773Z,99522.03
2023-10-22T16:43:49.667Z,99519.66
2023-10-22T16:46:17.144Z,99521.69
2023-10-22T16:48:44.022Z,99522.84
2023-10-22T16:51:11.086Z,99525.69
2023-10-22T16:53:38.011Z,99525.00
2023-10-22T16:56:05.046Z,99534.00
2023-10-22T16:58:33.332Z,99533.19
2023-10-22T17:01:07.107Z,99532.84
2023-10-22T17:03:35.048Z,99541.66
2023-10-22T17:06:02.990Z,99545.31
2023-10-22T17:08:29.775Z,99544.66
2023-10-22T17:10:56.579Z,99543.31
2023-10-22T17:13:23.649Z,99551.31
2023-10-22T17:15:50.553Z,99557.81
2023-10-22T17:18:18.369Z,99558.81
2023-10-22T17:20:45.431Z,99568.81
2023-10-22T17:23:12.307Z,99562.78
2023-10-22T17:25:46.998Z,99576.59
2023-10-22T17:28:13.898Z,99576.47
2023-10-22T17:30:41.019Z,99582.13
2023-10-22T17:33:10.207Z,99579.59
2023-10-22T17:35:37.738Z,99586.94
2023-10-22T17:38:04.926Z,99588.75
2023-10-22T17:40:38.221Z,99593.59
2023-10-22T17:43:05.635Z,99590.75
2023-10-22T17:45:42.434Z,99596.88
2023-10-22T17:48:10.000Z,99597.72
2023-10-22T17:50:37.070Z,99600.22
2023-10-22T17:53:19.619Z,99599.53
2023-10-22T17:56:08.885Z,99603.81
2023-10-22T17:58:36.926Z,99610.69
2023-10-22T18:01:04.023Z,99611.69
2023-10-22T18:03:31.214Z,99617.84
2023-10-22T18:06:02.357Z,99627.16
2023-10-22T18:08:30.000Z,99624.31
2023-10-22T18:10:58.428Z,99622.78
2023-10-22T18:13:29.081Z,99624.78
2023-10-22T18:15:56.855Z,99625.09
2023-10-22T18:18:24.447Z,99620.78
2023-10-22T18:20:53.133Z,99634.09
2023-10-22T18:23:21.649Z,99631.75
2023-10-22T18:25:59.374Z,99634.19
2023-10-22T18:28:26.478Z,99630.25
2023-10-22T18:32:10.586Z,99635.66
2023-10-22T18:34:37.876Z,99632.22
2023-10-22T18:37:05.158Z,99622.72
2023-10-22T18:39:32.276Z,99626.88
2023-10-22T18:42:12.017Z,99630.38
2023-10-22T18:44:42.288Z,99632.38
2023-10-22T18:47:09.328Z,99634.03
2023-10-22T18:49:36.166Z,99638.38
2023-10-22T18:52:03.067Z,99632.50
2023-10-22T18:54:29.937Z,99638.69
2023-10-22T18:56:56.861Z,99630.84
2023-10-22T18:59:23.875Z,99635.66
2023-10-22T19:01:51.014Z,99632.47
2023-10-22T19:04:18.094Z,99644.63
2023-10-22T19:06:45.099Z,99641.97
2023-10-22T19:09:12.652Z,99647.31
2023-10-22T19:11:40.353Z,99645.47
2023-10-22T19:14:07.468Z,99650.97
2023-10-22T19:16:34.530Z,99658.66
2023-10-22T19:19:01.501Z,99663.28
2023-10-22T19:21:29.092Z,99664.44
2023-10-22T19:23:56.072Z,99669.78
2023-10-22T19:26:23.107Z,99679.47
2023-10-22T19:28:50.162Z,99677.09
2023-10-22T19:31:17.325Z,99669.78
2023-10-22T19:33:44.459Z,99676.09
2023-10-22T19:36:18.945Z,99674.91
2023-10-22T19:38:46.657Z,99677.09
2023-10-22T19:41:20.080Z,99683.72
2023-10-22T19:43:46.967Z,99688.06
2023-10-22T19:46:14.157Z,99690.72
2023-10-22T19:48:43.234Z,99681.91
2023-10-22T19:51:10.113Z,99679.22
2023-10-22T19:53:37.062Z,99688.06
2023-10-22T19:56:04.228Z,99680.25
2023-10-22T19:58:31.386Z,99679.38
2023-10-22T20:00:58.619Z,99681.38
2023-10-22T20:03:25.756Z,99694.84
2023-10-22T20:05:53.615Z,99695.69
2023-10-22T20:08:20.507Z,99691.19
2023-10-22T20:10:47.977Z,99692.31
2023-10-22T20:13:14.802Z,99692.31
2023-10-22T20:15:41.711Z,99697.81
2023-10-22T20:18:09.493Z,99699.94
2023-10-22T20:20:36.928Z,99697.97
2023-10-22T20:23:03.802Z,99697.28
2023-10-22T20:25:30.636Z,99702.78
2023-10-22T20:28:05.897Z,99702.78
2023-10-22T20:30:34.778Z,99709.25
2023-10-22T20:33:01.663Z,99709.25
2023-10-22T20:35:28.532Z,99712.75
2023-10-22T20:37:55.331Z,99711.09
2023-10-22T20:40:32.719Z,99712.88
2023-10-22T20:43:05.646Z,99713.06
2023-10-22T20:45:34.536Z,99711.38
2023-10-22T20:48:01.515Z,99715.88
2023-10-22T20:50:29.649Z,99713.06
2023-10-22T20:52:56.435Z,99717.56
2023-10-22T20:55:23.298Z,99709.84
2023-10-22T20:57:50.206Z,99711.69
2023-10-22T21:00:17.291Z,99712.50
2023-10-22T21:02:44.146Z,99710.84
2023-10-22T21:05:10.947Z,99715.47
2023-10-22T21:07:37.926Z,99718.47
2023-10-22T21:10:05.701Z,99720.13
2023-10-22T21:12:32.558Z,99716.78
2023-10-22T21:14:59.380Z,99705.28
2023-10-22T21:17:26.187Z,99715.09
2023-10-22T21:19:53.005Z,99716.94
2023-10-22T21:22:19.734Z,99714.28
2023-10-22T21:24:46.574Z,99711.22
2023-10-22T21:27:13.737Z,99714.56
2023-10-22T21:29:41.788Z,99708.69
2023-10-22T21:32:08.641Z,99713.19
2023-10-22T21:34:35.532Z,99718.53
2023-10-22T21:37:02.381Z,99716.69
2023-10-22T21:39:29.330Z,99714.19
2023-10-22T21:41:56.209Z,99720.34
2023-10-22T21:44:23.105Z,99726.50
2023-10-22T21:46:49.893Z,99721.19
2023-10-22T21:49:16.842Z,99719.66
2023-10-22T21:51:43.882Z,99721.63
2023-10-22T21:54:10.882Z,99711.97
2023-10-22T21:56:37.783Z,99721.63
2023-10-22T21:59:04.797Z,99720.81
2023-10-22T22:01:36.782Z,99726.56
2023-10-22T22:04:03.699Z,99723.91
2023-10-22T22:06:30.598Z,99723.91
2023-10-22T22:08:57.527Z,99713.56
2023-10-22T22:11:24.385Z,99709.06
2023-10-22T22:13:51.135Z,99717.22
2023-10-22T22:16:18.113Z,99712.22
2023-10-22T22:18:45.022Z,99715.84
2023-10-22T22:21:11.882Z,99707.84
2023-10-22T22:23:38.764Z,99710.69
2023-10-22T22:26:05.511Z,99708.47
2023-10-22T22:28:32.852Z,99708.47
2023-10-22T22:31:01.326Z,99705.25
2023-10-22T22:33:28.278Z,99709.75
2023-10-22T22:35:55.102Z,99721.38
2023-10-22T22:38:21.943Z,99712.84
2023-10-22T22:40:48.751Z,99712.31
2023-10-22T22:43:15.638Z,99716.13
2023-10-22T22:45:42.603Z,99727.59
2023-10-22T22:48:09.703Z,99722.72
2023-10-22T22:50:36.528Z,99728.03
2023-10-22T22:53:03.357Z,99725.53
2023-10-22T22:55:30.223Z,99732.81
2023-10-22T22:57:57.008Z,99731.28
2023-10-22T23:00:23.911Z,99746.44
2023-10-22T23:02:51.060Z,99735.94
2023-10-22T23:05:18.025Z,99742.06
2023-10-22T23:07:45.187Z,99743.91
2023-10-22T23:10:12.103Z,99740.41
2023-10-22T23:12:38.911Z,99743.06
2023-10-22T23:15:07.311Z,99742.50
2023-10-22T23:17:34.194Z,99734.84
2023-10-22T23:20:01.038Z,99730.81
2023-10-22T23:22:27.885Z,99740.75
2023-10-22T23:24:54.953Z,99734.59
2023-10-22T23:27:21.873Z,99741.59
2023-10-22T23:29:48.675Z,99738.63
2023-10-22T23:32:15.514Z,99739.63
2023-10-22T23:34:42.430Z,99739.91
2023-10-22T23:37:09.293Z,99746.06
2023-10-22T23:39:36.078Z,99743.41
2023-10-22T23:42:03.018Z,99754.34
2023-10-22T23:44:29.925Z,99756.72
2023-10-22T23:46:56.784Z,99752.38
2023-10-22T23:49:24.538Z,99750.00
2023-10-22T23:51:51.415Z,99745.38
2023-10-22T23:54:18.682Z,99749.03
2023-10-22T23:56:45.665Z,99750.56
2023-10-22T23:59:12.437Z,99756.84
